Time;durP1;ratioP1;P1;durP2;ratioP2;P2;SDS_P1;SDS_P2;PMS_P1;PMS_P2;Temp;Humidity;BMP_temperature;BMP_pressure;BME280_temperature;BME280_humidity;BME280_pressure;Samples;Min_cycle;Max_cycle;Signal;HPM_P1;HPM_P2
2021/04/11 00:00:59;;;;;;;6.85;2.78;;;9.60;81.50;;;;;;5096465;28;20297;-72
2021/04/11 00:03:26;;;;;;;7.13;3.13;;;9.60;81.10;;;;;;5096338;28;20307;-72
2021/04/11 00:05:53;;;;;;;8.75;3.15;;;9.60;81.20;;;;;;5096648;28;20024;-73
2021/04/11 00:08:20;;;;;;;9.40;3.58;;;9.60;81.50;;;;;;5096411;28;20104;-73
2021/04/11 00:10:55;;;;;;;8.18;2.90;;;9.70;81.80;;;;;;5096411;28;20099;-73
2021/04/11 00:13:24;;;;;;;7.45;3.22;;;9.70;81.60;;;;;;5096331;28;20099;-73
2021/04/11 00:15:50;;;;;;;9.65;3.42;;;9.70;81.30;;;;;;5096293;28;20312;-73
2021/04/11 00:18:16;;;;;;;10.20;4.28;;;9.70;81.10;;;;;;5096370;28;20073;-73
2021/04/11 00:20:42;;;;;;;10.63;2.97;;;9.70;80.70;;;;;;5096283;28;20024;-73
2021/04/11 00:23:08;;;;;;;12.55;3.67;;;9.60;80.70;;;;;;5096539;28;20066;-73
2021/04/11 00:25:36;;;;;;;13.52;3.90;;;9.60;81.70;;;;;;5096445;28;20035;-73
2021/04/11 00:28:02;;;;;;;11.50;3.50;;;9.70;81.10;;;;;;5096174;28;20354;-73
2021/04/11 00:30:29;;;;;;;6.38;3.28;;;9.80;80.80;;;;;;5096244;28;20035;-73
2021/04/11 00:32:56;;;;;;;9.52;3.35;;;9.80;81.10;;;;;;5081709;28;20040;-72
2021/04/11 00:35:23;;;;;;;11.27;3.42;;;9.60;81.30;;;;;;5099675;28;20028;-73
2021/04/11 00:37:48;;;;;;;9.50;3.60;;;9.60;81.70;;;;;;5099642;28;20028;-73
2021/04/11 00:40:20;;;;;;;7.30;2.80;;;9.70;81.90;;;;;;5099662;28;20427;-73
2021/04/11 00:42:51;;;;;;;8.38;3.50;;;9.70;81.60;;;;;;5099938;28;20408;-73
2021/04/11 00:45:23;;;;;;;7.53;3.70;;;9.80;80.90;;;;;;5099473;28;20485;-72
2021/04/11 00:47:48;;;;;;;13.88;4.20;;;9.70;80.50;;;;;;5099760;28;20032;-73
2021/04/11 00:50:16;;;;;;;10.68;3.78;;;9.60;80.80;;;;;;5099390;28;20031;-73
2021/04/11 00:52:43;;;;;;;9.90;3.90;;;9.60;81.90;;;;;;5081592;28;20141;-73
2021/04/11 00:55:10;;;;;;;11.77;3.75;;;9.60;81.60;;;;;;5099282;28;20032;-73
2021/04/11 00:57:36;;;;;;;10.55;3.65;;;9.40;80.30;;;;;;5099214;28;20028;-73
2021/04/11 01:00:05;;;;;;;8.60;4.00;;;9.30;81.30;;;;;;5099203;28;20031;-73
2021/04/11 01:02:31;;;;;;;7.00;3.50;;;9.20;81.80;;;;;;5099457;28;20059;-73
2021/04/11 01:04:56;;;;;;;5.90;3.70;;;9.00;82.50;;;;;;5099095;28;20432;-73
2021/04/11 01:07:24;;;;;;;6.55;3.97;;;8.90;83.50;;;;;;5081193;28;20024;-73
2021/04/11 01:09:50;;;;;;;8.50;3.97;;;8.70;84.50;;;;;;5081204;28;20031;-73
2021/04/11 01:12:23;;;;;;;9.93;4.10;;;8.70;85.00;;;;;;5099046;28;20024;-73
2021/04/11 01:14:49;;;;;;;11.65;4.40;;;8.70;84.90;;;;;;5098996;28;20392;-73
2021/04/11 01:17:18;;;;;;;10.65;4.15;;;8.80;86.30;;;;;;5099186;28;20020;-72
2021/04/11 01:19:45;;;;;;;11.02;4.22;;;8.90;87.20;;;;;;5098995;28;20366;-73
2021/04/11 01:22:22;;;;;;;9.40;4.40;;;8.80;86.10;;;;;;5098908;28;20077;-73
2021/04/11 01:24:53;;;;;;;11.43;4.45;;;8.90;86.60;;;;;;5098827;28;20332;-73
2021/04/11 01:27:27;;;;;;;13.43;4.50;;;8.90;86.70;;;;;;5098789;28;20107;-73
2021/04/11 01:29:54;;;;;;;7.85;4.25;;;9.00;86.00;;;;;;5098834;28;20043;-73
2021/04/11 01:32:20;;;;;;;8.85;4.00;;;9.00;86.20;;;;;;5080744;28;20320;-73
2021/04/11 01:34:46;;;;;;;9.40;3.95;;;9.00;87.20;;;;;;5098544;28;20355;-73
2021/04/11 01:37:15;;;;;;;10.20;5.05;;;8.90;85.70;;;;;;5098527;28;20386;-73
2021/04/11 01:39:43;;;;;;;9.43;4.53;;;9.00;87.50;;;;;;5080465;28;20028;-73
2021/04/11 01:42:11;;;;;;;8.52;3.85;;;8.90;87.20;;;;;;5097840;28;20316;-72
2021/04/11 01:44:42;;;;;;;8.07;3.95;;;8.80;87.50;;;;;;5097880;28;20032;-72
2021/04/11 01:47:09;;;;;;;10.25;3.92;;;8.70;88.70;;;;;;5098405;28;20020;-73
2021/04/11 01:49:35;;;;;;;11.57;4.57;;;8.70;88.70;;;;;;5098514;28;20107;-73
2021/04/11 01:52:15;;;;;;;8.15;4.05;;;8.70;89.80;;;;;;5098122;28;20063;-73
2021/04/11 01:54:42;;;;;;;8.77;3.90;;;8.70;89.70;;;;;;5098258;28;20101;-73
2021/04/11 01:57:18;;;;;;;7.72;4.10;;;8.70;89.60;;;;;;5080238;28;20073;-72
2021/04/11 01:59:44;;;;;;;8.02;4.28;;;8.60;90.20;;;;;;5098187;28;20328;-72
2021/04/11 02:02:13;;;;;;;10.23;4.68;;;8.50;91.60;;;;;;5080117;28;20023;-72
2021/04/11 02:04:39;;;;;;;6.82;4.40;;;8.50;90.90;;;;;;5098235;28;20054;-73
2021/04/11 02:07:08;;;;;;;10.15;4.75;;;8.40;90.20;;;;;;5097996;28;20016;-73
2021/04/11 02:09:39;;;;;;;6.70;4.60;;;8.40;90.80;;;;;;5097907;28;20420;-73
2021/04/11 02:12:06;;;;;;;7.75;4.55;;;8.40;91.30;;;;;;5097959;28;20362;-73
2021/04/11 02:14:32;;;;;;;5.97;4.40;;;8.40;90.80;;;;;;5098044;28;20024;-73
2021/04/11 02:16:58;;;;;;;7.90;4.65;;;8.30;90.80;;;;;;5098130;28;20035;-73
2021/04/11 02:19:26;;;;;;;5.55;4.40;;;8.20;91.80;;;;;;5097962;28;20032;-73
2021/04/11 02:21:57;;;;;;;11.27;5.00;;;8.10;91.80;;;;;;5097709;28;20408;-72
2021/04/11 02:24:23;;;;;;;9.45;5.20;;;8.10;92.40;;;;;;5097836;28;20028;-72
2021/04/11 02:26:49;;;;;;;11.77;5.22;;;8.10;92.70;;;;;;5097833;28;20026;-73
2021/04/11 02:29:21;;;;;;;11.65;5.05;;;8.10;92.90;;;;;;5097570;28;20024;-72
2021/04/11 02:31:46;;;;;;;11.02;5.28;;;8.00;92.20;;;;;;5097841;28;20077;-73
2021/04/11 02:34:20;;;;;;;8.13;5.07;;;7.90;93.70;;;;;;5097698;28;20031;-72
2021/04/11 02:36:49;;;;;;;10.60;5.13;;;7.90;93.90;;;;;;5079515;28;20020;-73
2021/04/11 02:39:19;;;;;;;11.35;4.88;;;7.90;93.70;;;;;;5097649;28;20466;-73
2021/04/11 02:41:46;;;;;;;10.02;5.35;;;8.00;94.20;;;;;;5097370;28;20016;-73
2021/04/11 02:44:12;;;;;;;9.98;5.40;;;8.10;94.00;;;;;;5079311;28;20060;-73
2021/04/11 02:46:40;;;;;;;8.73;5.50;;;8.20;93.10;;;;;;5097541;28;20032;-73
2021/04/11 02:49:11;;;;;;;11.00;6.10;;;8.20;92.50;;;;;;5097248;28;20056;-73
2021/04/11 02:51:37;;;;;;;7.72;5.70;;;8.20;91.50;;;;;;5097064;28;20379;-72
2021/04/11 02:54:05;;;;;;;8.55;5.00;;;8.20;92.00;;;;;;5096989;28;20036;-73
2021/04/11 02:56:31;;;;;;;8.18;5.43;;;8.20;92.60;;;;;;5097360;28;20074;-73
2021/04/11 02:58:57;;;;;;;8.98;5.25;;;8.20;93.10;;;;;;5097287;28;20042;-72
2021/04/11 03:01:43;;;;;;;9.57;4.82;;;8.30;92.60;;;;;;5097347;28;20028;-73
2021/04/11 03:04:14;;;;;;;6.43;4.80;;;8.20;92.50;;;;;;5097282;28;20103;-73
2021/04/11 03:06:44;;;;;;;6.80;5.10;;;8.00;93.00;;;;;;5096989;28;20304;-72
2021/04/11 03:09:15;;;;;;;9.07;5.15;;;7.90;94.10;;;;;;5097163;28;20063;-73
2021/04/11 03:11:44;;;;;;;8.43;5.10;;;8.00;94.10;;;;;;5079079;28;20028;-72
2021/04/11 03:14:15;;;;;;;8.20;5.70;;;7.90;93.60;;;;;;5096809;28;20028;-73
2021/04/11 03:16:42;;;;;;;9.75;5.70;;;7.90;93.70;;;;;;5097476;28;20153;-73
2021/04/11 03:19:08;;;;;;;10.88;5.72;;;7.90;93.70;;;;;;5097035;28;20028;-73
2021/04/11 03:21:35;;;;;;;7.68;5.55;;;7.80;93.60;;;;;;5097032;28;20028;-73
2021/04/11 03:24:03;;;;;;;13.13;5.05;;;7.80;93.60;;;;;;5078822;28;20060;-72
2021/04/11 03:26:50;;;;;;;9.15;6.45;;;7.70;94.00;;;;;;5096750;28;20024;-73
2021/04/11 03:29:22;;;;;;;8.00;5.60;;;7.60;94.70;;;;;;5096719;28;20020;-72
2021/04/11 03:32:18;;;;;;;11.25;7.00;;;7.60;94.90;;;;;;5096770;28;20035;-72
2021/04/11 03:34:46;;;;;;;7.40;6.05;;;7.60;94.80;;;;;;5096839;28;20020;-73
2021/04/11 03:37:14;;;;;;;7.40;5.88;;;7.60;94.70;;;;;;5096736;28;20106;-72
2021/04/11 03:39:40;;;;;;;8.15;6.30;;;7.50;94.90;;;;;;5078685;28;20035;-72
2021/04/11 03:42:09;;;;;;;8.65;6.63;;;7.60;94.80;;;;;;5096998;28;20103;-73
2021/04/11 03:44:35;;;;;;;9.63;6.63;;;7.70;94.70;;;;;;5096464;28;20400;-72
2021/04/11 03:47:14;;;;;;;7.47;6.10;;;7.70;94.80;;;;;;5096869;28;20024;-72
2021/04/11 03:50:05;;;;;;;7.35;6.57;;;7.60;95.40;;;;;;5096584;28;20035;-73
2021/04/11 03:52:47;;;;;;;11.65;7.38;;;7.60;94.90;;;;;;5096592;28;20120;-73
2021/04/11 03:55:20;;;;;;;10.15;7.05;;;7.60;94.80;;;;;;5096439;28;20032;-72
2021/04/11 03:57:56;;;;;;;10.27;7.03;;;7.50;95.10;;;;;;5096694;28;20027;-73
2021/04/11 04:00:32;;;;;;;9.65;7.43;;;7.50;95.40;;;;;;5096647;28;20411;-73
2021/04/11 04:03:02;;;;;;;;;;;7.50;95.00;;;;;;5096919;28;20424;-73
2021/04/11 04:05:29;;;;;;;12.80;6.90;;;7.60;95.50;;;;;;5096388;28;20333;-72
2021/04/11 04:07:57;;;;;;;8.85;7.00;;;7.70;96.20;;;;;;5100134;28;20028;-72
2021/04/11 04:10:30;;;;;;;10.07;6.90;;;7.70;96.50;;;;;;5100323;28;20035;-72
2021/04/11 04:13:22;;;;;;;11.32;7.80;;;7.80;96.70;;;;;;5100201;28;20054;-73
2021/04/11 04:16:25;;;;;;;9.40;7.03;;;7.80;96.30;;;;;;5100177;28;20039;-72
2021/04/11 04:19:28;;;;;;;7.85;6.30;;;7.80;96.70;;;;;;5100139;28;20020;-73
2021/04/11 04:22:19;;;;;;;7.05;6.35;;;7.90;96.10;;;;;;5100074;28;20428;-73
2021/04/11 04:25:05;;;;;;;9.57;6.25;;;8.00;95.20;;;;;;5100090;28;20074;-73
2021/04/11 04:27:49;;;;;;;9.40;6.90;;;8.10;95.30;;;;;;5099913;28;20369;-72
2021/04/11 04:30:25;;;;;;;8.82;5.80;;;8.20;95.30;;;;;;5100081;28;20028;-73
2021/04/11 04:33:18;;;;;;;9.32;5.82;;;8.10;95.70;;;;;;5100062;28;20031;-73
2021/04/11 04:36:02;;;;;;;6.55;4.72;;;8.10;95.90;;;;;;5099774;28;20019;-73
2021/04/11 04:38:47;;;;;;;5.95;5.32;;;8.20;95.50;;;;;;5100192;28;20031;-73
2021/04/11 04:41:33;;;;;;;6.18;5.07;;;8.20;95.00;;;;;;5099735;28;20020;-73
2021/04/11 04:44:38;;;;;;;6.70;5.10;;;8.20;95.00;;;;;;5099659;28;20025;-73
2021/04/11 04:47:21;;;;;;;6.35;4.88;;;8.10;95.60;;;;;;5060897;28;20068;-73
2021/04/11 04:50:01;;;;;;;7.53;5.07;;;8.00;95.90;;;;;;5099471;28;20032;-73
2021/04/11 04:52:30;;;;;;;5.65;4.50;;;7.90;95.80;;;;;;5099497;28;20412;-73
2021/04/11 04:55:01;;;;;;;6.82;4.90;;;7.80;95.80;;;;;;5099608;28;20031;-73
2021/04/11 04:57:44;;;;;;;5.10;4.55;;;7.80;96.60;;;;;;5081686;28;20469;-73
2021/04/11 05:00:19;;;;;;;7.95;4.75;;;7.80;96.70;;;;;;5099284;28;20085;-72
2021/04/11 05:02:57;;;;;;;8.98;5.10;;;7.90;96.20;;;;;;5099748;28;20028;-72
2021/04/11 05:05:25;;;;;;;5.03;3.75;;;7.80;96.20;;;;;;5099236;28;20316;-72
2021/04/11 05:08:03;;;;;;;5.53;4.32;;;7.80;96.40;;;;;;5099409;28;20032;-73
2021/04/11 05:10:45;;;;;;;6.80;4.47;;;7.70;96.80;;;;;;5099052;28;20028;-73
2021/04/11 05:13:21;;;;;;;6.35;4.50;;;7.60;97.60;;;;;;5099251;28;20062;-72
2021/04/11 05:15:56;;;;;;;6.57;3.55;;;7.60;97.60;;;;;;5099045;28;20020;-72
2021/04/11 05:18:26;;;;;;;7.25;3.55;;;7.70;98.00;;;;;;5098852;28;20315;-73
2021/04/11 05:21:07;;;;;;;6.97;3.47;;;7.80;98.00;;;;;;5098909;28;20093;-73
2021/04/11 05:23:45;;;;;;;3.30;2.95;;;7.90;98.00;;;;;;5099162;28;20028;-72
2021/04/11 05:26:24;;;;;;;4.70;2.42;;;7.90;97.50;;;;;;5098773;28;20443;-73
2021/04/11 05:28:56;;;;;;;4.22;2.70;;;7.90;97.20;;;;;;5099057;28;20032;-72
2021/04/11 05:31:29;;;;;;;2.05;1.73;;;7.90;97.10;;;;;;5098639;28;20024;-73
2021/04/11 05:33:56;;;;;;;3.58;2.22;;;7.80;97.30;;;;;;5098697;28;20035;-73
2021/04/11 05:36:30;;;;;;;9.57;2.70;;;7.70;97.70;;;;;;5098759;28;20020;-72
2021/04/11 05:39:14;;;;;;;2.47;1.70;;;7.70;98.00;;;;;;5098724;28;20036;-73
2021/04/11 05:41:47;;;;;;;2.78;1.75;;;7.80;98.00;;;;;;5098528;28;20020;-73
2021/04/11 05:44:16;;;;;;;3.63;2.47;;;7.90;97.80;;;;;;5098757;28;20111;-72
2021/04/11 05:47:22;;;;;;;2.40;1.83;;;7.90;97.40;;;;;;5080442;28;20020;-73
2021/04/11 05:49:50;;;;;;;3.67;2.40;;;8.00;97.00;;;;;;5098598;28;20024;-73
2021/04/11 05:52:32;;;;;;;3.45;2.33;;;7.90;96.80;;;;;;5098220;28;20411;-73
2021/04/11 05:55:00;;;;;;;3.13;2.22;;;7.90;97.20;;;;;;5098291;28;20036;-73
2021/04/11 05:57:28;;;;;;;2.95;2.65;;;7.80;97.60;;;;;;5098182;28;20431;-73
2021/04/11 06:00:08;;;;;;;6.07;3.42;;;7.80;97.30;;;;;;5080156;28;20032;-73
2021/04/11 06:02:41;;;;;;;4.97;2.88;;;7.80;97.50;;;;;;5098666;28;20089;-73
2021/04/11 06:05:11;;;;;;;3.40;2.70;;;7.90;97.50;;;;;;5098043;28;20020;-73
2021/04/11 06:07:58;;;;;;;3.05;2.45;;;7.80;97.70;;;;;;5098054;28;20105;-72
2021/04/11 06:10:32;;;;;;;5.65;2.97;;;7.60;97.90;;;;;;5098070;28;20024;-73
2021/04/11 06:13:28;;;;;;;3.95;2.65;;;7.60;98.00;;;;;;5098020;28;20035;-73
2021/04/11 06:16:09;;;;;;;4.57;2.60;;;7.70;98.00;;;;;;5084356;28;20351;-72
2021/04/11 06:18:35;;;;;;;2.53;2.20;;;7.60;98.00;;;;;;5097886;28;20070;-72
2021/04/11 06:21:06;;;;;;;4.55;2.40;;;7.60;98.00;;;;;;5097693;28;20016;-73
2021/04/11 06:23:43;;;;;;;3.47;2.35;;;7.70;98.00;;;;;;5097993;28;20074;-72
2021/04/11 06:26:16;;;;;;;3.13;2.38;;;7.70;98.00;;;;;;5097684;28;20111;-73
2021/04/11 06:28:48;;;;;;;3.67;2.05;;;7.70;98.00;;;;;;5096941;28;20035;-73
2021/04/11 06:31:21;;;;;;;5.05;2.58;;;7.80;98.00;;;;;;5098170;28;20289;-73
2021/04/11 06:33:51;;;;;;;3.40;1.98;;;7.90;98.00;;;;;;5097615;28;20525;-73
2021/04/11 06:36:28;;;;;;;25.25;3.08;;;7.90;98.00;;;;;;5097407;28;20049;-73
2021/04/11 06:38:59;;;;;;;10.52;2.47;;;7.90;97.60;;;;;;5097634;28;20351;-72
2021/04/11 06:41:43;;;;;;;3.92;2.15;;;8.00;97.90;;;;;;5097472;28;20114;-72
2021/04/11 06:44:33;;;;;;;3.88;1.92;;;8.00;97.80;;;;;;5079321;28;20107;-72
2021/04/11 06:47:12;;;;;;;4.03;1.75;;;8.00;97.70;;;;;;5097644;28;20030;-73
2021/04/11 06:49:44;;;;;;;66.05;5.22;;;8.10;97.70;;;;;;5079276;28;20038;-73
2021/04/11 06:52:48;;;;;;;7.25;1.85;;;8.20;97.60;;;;;;5097011;28;20047;-73
2021/04/11 06:55:32;;;;;;;13.50;1.83;;;8.10;97.20;;;;;;5097205;28;20107;-73
2021/04/11 06:58:51;;;;;;;141.60;7.55;;;8.10;97.70;;;;;;5096948;28;20047;-73
2021/04/11 07:01:55;;;;;;;2.55;0.90;;;8.00;97.60;;;;;;4995685;28;20061;-73
2021/04/11 07:04:29;;;;;;;48.58;3.05;;;8.00;97.50;;;;;;4976643;28;20434;-73
2021/04/11 07:07:33;;;;;;;1.40;1.08;;;7.90;97.60;;;;;;5085751;28;20040;-73
2021/04/11 07:10:30;;;;;;;232.13;11.80;;;7.90;97.90;;;;;;5092523;28;20032;-73
2021/04/11 07:13:07;;;;;;;333.50;16.15;;;7.90;98.00;;;;;;5097214;28;20020;-73
2021/04/11 07:15:51;;;;;;;9.95;1.83;;;7.90;98.00;;;;;;5096812;28;20047;-73
2021/04/11 07:18:17;;;;;;;53.90;3.92;;;7.90;98.00;;;;;;5097187;28;20024;-73
2021/04/11 07:21:26;;;;;;;258.92;13.13;;;7.90;98.00;;;;;;5096866;28;20028;-72
2021/04/11 07:24:22;;;;;;;265.23;14.27;;;7.90;98.00;;;;;;5097232;28;20024;-72
2021/04/11 07:26:59;;;;;;;399.45;20.33;;;7.90;98.00;;;;;;5096721;28;20028;-72
2021/04/11 07:29:42;;;;;;;380.63;22.75;;;7.80;98.00;;;;;;5096959;28;20024;-73
2021/04/11 07:32:14;;;;;;;551.85;28.55;;;7.80;98.00;;;;;;5096732;28;20047;-73
2021/04/11 07:35:04;;;;;;;320.55;15.00;;;7.80;98.00;;;;;;5096689;28;20032;-72
2021/04/11 07:37:33;;;;;;;956.85;47.25;;;7.80;98.00;;;;;;5096697;28;20107;-73
2021/04/11 07:40:14;;;;;;;1012.50;50.10;;;7.70;98.00;;;;;;5097404;28;20027;-73
2021/04/11 07:42:49;;;;;;;346.17;16.42;;;7.70;98.00;;;;;;5100833;28;20024;-73
2021/04/11 07:45:15;;;;;;;136.57;7.32;;;7.60;98.00;;;;;;5100839;28;20028;-72
2021/04/11 07:48:05;;;;;;;7.45;2.08;;;7.60;98.00;;;;;;5100708;28;20023;-72
2021/04/11 07:51:08;;;;;;;154.55;11.90;;;7.60;98.00;;;;;;5082549;28;20032;-73
2021/04/11 07:53:52;;;;;;;904.45;47.05;;;7.60;98.00;;;;;;5082741;28;20062;-73
2021/04/11 07:56:23;;;;;;;629.13;35.28;;;7.60;98.00;;;;;;5100642;28;20025;-73
2021/04/11 07:59:01;;;;;;;737.90;40.65;;;7.60;98.00;;;;;;5100481;28;20024;-73
2021/04/11 08:01:52;;;;;;;525.13;30.02;;;7.70;98.00;;;;;;5100784;28;20082;-72
2021/04/11 08:04:54;;;;;;;260.30;13.98;;;7.70;98.00;;;;;;5100335;28;20035;-72
2021/04/11 08:07:26;;;;;;;231.98;11.68;;;7.60;98.00;;;;;;5100399;28;20438;-73
2021/04/11 08:10:40;;;;;;;177.52;10.77;;;7.60;98.00;;;;;;5100440;28;20079;-73
2021/04/11 08:13:11;;;;;;;53.42;4.55;;;7.60;98.00;;;;;;5073234;28;20328;-73
2021/04/11 08:16:14;;;;;;;22.30;3.70;;;7.60;98.00;;;;;;5100481;28;20312;-73
2021/04/11 08:19:05;;;;;;;283.75;16.45;;;7.70;98.00;;;;;;5099984;28;20032;-72
2021/04/11 08:21:44;;;;;;;111.68;8.38;;;7.70;98.00;;;;;;5100243;28;20069;-72
2021/04/11 08:25:02;;;;;;;211.43;13.60;;;7.70;98.00;;;;;;5100374;28;20036;-73
2021/04/11 08:28:24;;;;;;;378.60;18.30;;;7.70;98.00;;;;;;5100300;28;20017;-72
2021/04/11 08:31:14;;;;;;;598.38;34.80;;;7.70;98.00;;;;;;4998431;28;20445;-72
2021/04/11 08:33:44;;;;;;;480.58;20.88;;;7.70;98.00;;;;;;4998331;28;20022;-72
2021/04/11 08:36:23;;;;;;;545.38;26.33;;;7.80;98.00;;;;;;5078495;28;20036;-73
2021/04/11 08:39:20;;;;;;;369.42;16.13;;;7.80;98.00;;;;;;5099902;28;20226;-72
2021/04/11 08:42:18;;;;;;;172.15;11.18;;;7.90;98.00;;;;;;5099937;28;20080;-73
2021/04/11 08:45:04;;;;;;;83.97;5.30;;;8.00;98.00;;;;;;5058936;28;20103;-73
2021/04/11 08:48:11;;;;;;;3.92;2.40;;;8.00;98.00;;;;;;5081675;28;20400;-73
2021/04/11 08:50:46;;;;;;;3.45;2.53;;;8.00;98.00;;;;;;5018732;28;20481;-73
2021/04/11 08:53:17;;;;;;;4.82;2.55;;;8.00;97.80;;;;;;5099110;28;20312;-73
2021/04/11 08:56:04;;;;;;;3.08;2.13;;;8.10;98.00;;;;;;5099429;28;20030;-73
2021/04/11 08:58:32;;;;;;;29.75;3.65;;;8.10;97.80;;;;;;5099416;28;20036;-73
2021/04/11 09:01:04;;;;;;;12.95;2.80;;;8.10;97.70;;;;;;5099514;28;20420;-73
2021/04/11 09:03:56;;;;;;;4.55;2.35;;;8.10;97.70;;;;;;5099370;28;20046;-73
2021/04/11 09:06:48;;;;;;;3.67;2.30;;;8.10;98.00;;;;;;5048411;28;20066;-73
2021/04/11 09:09:33;;;;;;;4.20;2.13;;;8.10;97.70;;;;;;5099581;28;20027;-73
2021/04/11 09:12:24;;;;;;;2.67;2.22;;;8.10;98.00;;;;;;5099096;28;20420;-73
2021/04/11 09:15:04;;;;;;;3.28;1.95;;;8.20;97.70;;;;;;5099124;28;20032;-72
2021/04/11 09:17:52;;;;;;;6.03;2.17;;;8.30;97.80;;;;;;5081106;28;20039;-73
2021/04/11 09:20:32;;;;;;;4.50;2.20;;;8.30;97.90;;;;;;5081024;28;20032;-73
2021/04/11 09:23:33;;;;;;;6.60;2.78;;;8.40;97.70;;;;;;5099228;28;20032;-73
2021/04/11 09:26:22;;;;;;;3.88;2.33;;;8.50;98.00;;;;;;5098878;28;20036;-73
2021/04/11 09:29:09;;;;;;;3.35;2.30;;;8.70;97.00;;;;;;5085711;28;20058;-73
2021/04/11 09:32:01;;;;;;;5.55;2.25;;;8.80;95.70;;;;;;5098814;28;20024;-73
2021/04/11 09:34:27;;;;;;;5.32;2.50;;;8.80;96.00;;;;;;5098723;28;20043;-73
2021/04/11 09:37:20;;;;;;;3.63;2.20;;;8.90;95.90;;;;;;5098673;28;20415;-73
2021/04/11 09:39:48;;;;;;;4.55;2.50;;;9.00;95.70;;;;;;5098727;28;20032;-73
2021/04/11 09:42:51;;;;;;;3.90;2.45;;;9.10;95.30;;;;;;5080585;28;20027;-73
2021/04/11 09:45:31;;;;;;;10.10;2.60;;;9.20;96.00;;;;;;5098529;28;20412;-72
2021/04/11 09:48:34;;;;;;;5.43;2.20;;;9.20;95.30;;;;;;5098537;28;20020;-73
2021/04/11 09:51:06;;;;;;;5.57;2.47;;;9.30;95.50;;;;;;5098699;28;20366;-73
2021/04/11 09:53:51;;;;;;;5.90;3.08;;;9.40;94.40;;;;;;5098646;28;20290;-73
2021/04/11 09:56:51;;;;;;;6.82;2.42;;;9.60;94.70;;;;;;5098578;28;20031;-73
2021/04/11 09:59:41;;;;;;;3.92;1.95;;;9.70;94.20;;;;;;5098348;28;20028;-73
2021/04/11 10:02:50;;;;;;;3.30;2.33;;;9.80;93.70;;;;;;5098459;28;20024;-73
2021/04/11 10:05:48;;;;;;;4.35;1.98;;;9.60;92.50;;;;;;5097289;28;20024;-73
2021/04/11 10:08:45;;;;;;;3.53;2.28;;;9.60;93.90;;;;;;5078549;28;20047;-73
2021/04/11 10:11:51;;;;;;;3.03;2.13;;;9.50;93.90;;;;;;5098584;28;20035;-73
2021/04/11 10:14:53;;;;;;;3.58;1.92;;;9.70;94.90;;;;;;5091316;28;20035;-73
2021/04/11 10:17:44;;;;;;;6.78;2.28;;;9.80;94.20;;;;;;5077826;28;20036;-73
2021/04/11 10:20:23;;;;;;;3.63;2.17;;;9.80;92.80;;;;;;5077569;28;20371;-73
2021/04/11 10:22:58;;;;;;;4.68;2.20;;;9.80;92.00;;;;;;5077716;28;20107;-73
2021/04/11 10:25:31;;;;;;;4.13;2.42;;;9.80;92.40;;;;;;5074170;28;20419;-73
2021/04/11 10:28:05;;;;;;;5.10;2.15;;;9.90;93.80;;;;;;5074060;28;20409;-73
2021/04/11 10:30:33;;;;;;;5.20;2.40;;;10.00;92.30;;;;;;5072950;28;20104;-73
2021/04/11 10:33:02;;;;;;;7.40;2.80;;;10.00;93.00;;;;;;5073936;28;20387;-73
2021/04/11 10:35:46;;;;;;;4.30;2.55;;;10.00;91.50;;;;;;5072777;28;20032;-73
2021/04/11 10:38:33;;;;;;;6.18;2.85;;;9.90;92.90;;;;;;5073954;28;20029;-72
2021/04/11 10:41:07;;;;;;;;;;;9.90;93.20;;;;;;5073481;28;20286;-73
2021/04/11 10:43:49;;;;;;;4.07;2.80;;;9.80;93.20;;;;;;5073786;28;19908;-73
2021/04/11 10:46:24;;;;;;;3.50;2.72;;;9.80;93.10;;;;;;5073750;28;20029;-73
2021/04/11 10:49:22;;;;;;;3.42;2.60;;;9.60;94.10;;;;;;5073967;28;20103;-72
2021/04/11 10:52:10;;;;;;;3.90;2.70;;;9.50;94.30;;;;;;5073531;28;20032;-73
2021/04/11 10:55:13;;;;;;;2.83;2.22;;;9.50;94.70;;;;;;5073779;28;20052;-73
2021/04/11 10:57:57;;;;;;;8.38;2.53;;;9.70;94.20;;;;;;5073832;28;20107;-73
2021/04/11 11:00:47;;;;;;;3.38;2.40;;;9.70;95.50;;;;;;5072267;28;20029;-72
2021/04/11 11:03:42;;;;;;;5.47;2.50;;;9.80;95.10;;;;;;5073430;28;20036;-72
2021/04/11 11:06:33;;;;;;;3.80;2.40;;;9.80;93.90;;;;;;5073550;28;20082;-73
2021/04/11 11:09:05;;;;;;;3.50;2.10;;;9.80;93.90;;;;;;5073289;28;20032;-73
2021/04/11 11:12:04;;;;;;;3.58;1.85;;;9.80;90.50;;;;;;5073457;28;20032;-73
2021/04/11 11:14:45;;;;;;;5.72;1.85;;;10.00;89.90;;;;;;5073227;28;20029;-72
2021/04/11 11:17:29;;;;;;;2.47;1.45;;;10.10;92.40;;;;;;5073129;28;20029;-73
2021/04/11 11:20:06;;;;;;;2.83;1.27;;;10.20;90.30;;;;;;5072938;28;20028;-73
2021/04/11 11:23:09;;;;;;;4.05;1.40;;;10.30;88.90;;;;;;5073141;28;20036;-73
2021/04/11 11:25:44;;;;;;;4.35;2.75;;;10.30;92.60;;;;;;5072850;28;20048;-73
2021/04/11 11:28:42;;;;;;;4.57;2.60;;;10.20;92.40;;;;;;5071748;28;20113;-73
2021/04/11 11:31:29;;;;;;;3.33;1.90;;;10.10;92.30;;;;;;5072344;28;20090;-73
2021/04/11 11:34:26;;;;;;;3.13;1.98;;;10.00;90.30;;;;;;5072590;28;20020;-73
2021/04/11 11:37:13;;;;;;;2.08;1.88;;;9.90;92.60;;;;;;5058560;28;20367;-73
2021/04/11 11:40:00;;;;;;;3.80;2.50;;;9.70;93.70;;;;;;5058358;28;20028;-73
2021/04/11 11:42:53;;;;;;;3.10;2.80;;;9.60;94.20;;;;;;5059758;28;20024;-73
2021/04/11 11:45:47;;;;;;;3.50;2.70;;;9.80;95.50;;;;;;5059134;28;20298;-73
2021/04/11 11:48:36;;;;;;;5.72;2.90;;;9.80;95.70;;;;;;5058179;28;20040;-73
2021/04/11 11:51:07;;;;;;;5.90;3.15;;;9.80;95.70;;;;;;5059485;28;20025;-73
2021/04/11 11:53:56;;;;;;;5.25;2.90;;;9.80;95.80;;;;;;5058031;28;20143;-73
2021/04/11 11:56:31;;;;;;;69.80;6.38;;;9.80;94.40;;;;;;5059696;28;20295;-73
2021/04/11 11:59:12;;;;;;;408.65;18.92;;;9.80;94.70;;;;;;5059026;28;20035;-72
2021/04/11 12:01:52;;;;;;;4.57;3.30;;;9.60;94.80;;;;;;5059087;28;20025;-72
2021/04/11 12:04:46;;;;;;;3.70;3.20;;;9.50;94.70;;;;;;5058870;28;20108;-73
2021/04/11 12:07:33;;;;;;;4.15;3.40;;;9.40;95.20;;;;;;5057803;28;20025;-72
2021/04/11 12:10:02;;;;;;;153.00;8.95;;;9.30;96.20;;;;;;5059076;28;20024;-73
2021/04/11 12:12:32;;;;;;;10.82;3.72;;;9.30;96.40;;;;;;5058982;28;20028;-73
2021/04/11 12:15:26;;;;;;;5.32;3.25;;;9.20;95.80;;;;;;5058698;28;20025;-73
2021/04/11 12:18:12;;;;;;;4.68;3.47;;;9.20;95.90;;;;;;5058505;28;20040;-73
2021/04/11 12:20:46;;;;;;;4.38;3.15;;;9.20;95.90;;;;;;5058683;28;20037;-72
2021/04/11 12:23:12;;;;;;;3.95;2.97;;;9.20;96.70;;;;;;5058323;28;20320;-73
2021/04/11 12:25:38;;;;;;;22.20;3.72;;;9.30;96.20;;;;;;5058465;28;20017;-73
2021/04/11 12:28:24;;;;;;;413.40;17.90;;;9.30;95.50;;;;;;5058388;28;20028;-73
2021/04/11 12:30:50;;;;;;;503.65;26.17;;;9.20;96.60;;;;;;5058435;28;20364;-73
2021/04/11 12:33:42;;;;;;;875.33;45.08;;;9.10;96.60;;;;;;5058285;28;20020;-72
2021/04/11 12:36:27;;;;;;;112.53;6.38;;;9.20;96.40;;;;;;5058575;28;20066;-73
2021/04/11 12:39:06;;;;;;;70.85;5.22;;;9.10;96.80;;;;;;5058513;28;20053;-72
2021/04/11 12:41:41;;;;;;;449.58;18.10;;;9.00;96.20;;;;;;5058522;28;20100;-73
2021/04/11 12:44:37;;;;;;;325.15;14.77;;;9.10;95.80;;;;;;5058039;28;20020;-73
2021/04/11 12:47:36;;;;;;;33.63;4.43;;;9.10;96.60;;;;;;5057426;28;20029;-73
2021/04/11 12:50:14;;;;;;;3.28;2.22;;;9.10;96.90;;;;;;5057734;28;20037;-73
2021/04/11 12:52:57;;;;;;;4.78;2.53;;;9.20;95.00;;;;;;5058392;28;20017;-73
2021/04/11 12:55:33;;;;;;;45.60;3.92;;;9.20;95.60;;;;;;5058357;28;20163;-72
2021/04/11 12:58:18;;;;;;;554.08;19.65;;;9.10;95.60;;;;;;5058132;28;20035;-73
2021/04/11 13:00:59;;;;;;;4.10;2.67;;;9.00;95.60;;;;;;5056774;28;20025;-73
2021/04/11 13:04:04;;;;;;;4.38;2.50;;;8.90;96.20;;;;;;5057881;28;20298;-73
2021/04/11 13:06:42;;;;;;;2.80;2.45;;;8.70;95.90;;;;;;5057436;28;20037;-73
2021/04/11 13:09:32;;;;;;;4.95;2.25;;;8.70;96.20;;;;;;5056622;28;20028;-73
2021/04/11 13:12:09;;;;;;;3.28;2.95;;;8.60;96.60;;;;;;5057910;28;20021;-73
2021/04/11 13:14:52;;;;;;;4.00;2.50;;;8.50;97.30;;;;;;5056539;28;20116;-73
2021/04/11 13:17:42;;;;;;;5.60;1.70;;;8.50;97.80;;;;;;5057597;28;20036;-73
2021/04/11 13:20:10;;;;;;;3.08;1.55;;;8.60;97.10;;;;;;5057476;28;20036;-73
2021/04/11 13:22:47;;;;;;;2.17;1.15;;;8.70;96.50;;;;;;5057657;28;20040;-73
2021/04/11 13:25:33;;;;;;;1.90;1.70;;;8.70;95.50;;;;;;5057035;28;20349;-73
2021/04/11 13:28:23;;;;;;;2.20;1.58;;;8.70;96.30;;;;;;5057432;28;20028;-73
2021/04/11 13:31:22;;;;;;;2.50;1.85;;;8.70;96.30;;;;;;5057357;28;20306;-72
2021/04/11 13:34:05;;;;;;;1.77;1.20;;;8.70;95.30;;;;;;5056993;28;20097;-73
2021/04/11 13:36:48;;;;;;;1.60;1.05;;;8.70;95.20;;;;;;5057676;28;20028;-73
2021/04/11 13:39:50;;;;;;;1.02;0.47;;;8.60;95.90;;;;;;5057560;28;20025;-72
2021/04/11 13:42:34;;;;;;;0.98;0.57;;;8.70;93.60;;;;;;5056905;28;20116;-72
2021/04/11 13:45:27;;;;;;;1.58;0.40;;;8.60;93.60;;;;;;5057128;28;20419;-72
2021/04/11 13:48:10;;;;;;;0.20;0.15;;;8.60;93.60;;;;;;5057032;28;20444;-72
2021/04/11 13:51:05;;;;;;;0.30;0.30;;;8.60;92.50;;;;;;5056971;28;20443;-72
2021/04/11 13:53:49;;;;;;;1.08;0.30;;;8.50;90.70;;;;;;5057156;28;20029;-73
2021/04/11 13:56:26;;;;;;;0.25;0.20;;;8.50;91.40;;;;;;5056916;28;20037;-73